createdAt,value
2018-03-06T00:00:23.000Z,98002
2018-03-06T00:02:23.000Z,98000
2018-03-06T00:04:23.000Z,98007
2018-03-06T00:06:23.000Z,98002
2018-03-06T00:08:07.000Z,98004
2018-03-06T00:09:23.000Z,97999
2018-03-06T00:11:23.000Z,98003
2018-03-06T00:12:23.000Z,98002
2018-03-06T00:14:23.000Z,98004
2018-03-06T00:16:23.000Z,97996
2018-03-06T00:17:23.000Z,97996
2018-03-06T00:19:23.000Z,97995
2018-03-06T00:20:23.000Z,97996
2018-03-06T00:22:23.000Z,97997
2018-03-06T00:24:23.000Z,97996
2018-03-06T00:26:23.000Z,97992
2018-03-06T00:28:23.000Z,97993
2018-03-06T00:30:23.000Z,97992
2018-03-06T00:31:23.000Z,97988
2018-03-06T00:33:23.000Z,97994
2018-03-06T00:34:23.000Z,97997
2018-03-06T00:35:23.000Z,97990
2018-03-06T00:37:23.000Z,97986
2018-03-06T00:39:23.000Z,97992
2018-03-06T00:40:23.000Z,97984
2018-03-06T00:42:07.000Z,97991
2018-03-06T00:43:23.000Z,97984
2018-03-06T00:45:23.000Z,97983
2018-03-06T00:46:23.000Z,97986
2018-03-06T00:48:23.000Z,97979
2018-03-06T00:49:23.000Z,97975
2018-03-06T00:51:23.000Z,97973
2018-03-06T00:52:23.000Z,97976
2018-03-06T00:53:23.000Z,97975
2018-03-06T00:55:07.000Z,97974
2018-03-06T00:56:23.000Z,97977
2018-03-06T00:57:23.000Z,97976
2018-03-06T00:59:07.000Z,97972
2018-03-06T01:00:23.000Z,97969
2018-03-06T01:01:23.000Z,97967
2018-03-06T01:02:23.000Z,97970
2018-03-06T01:03:23.000Z,97969
2018-03-06T01:05:07.000Z,97972
2018-03-06T01:06:23.000Z,97966
2018-03-06T01:08:23.000Z,97958
2018-03-06T01:10:23.000Z,97953
2018-03-06T01:12:23.000Z,97958
2018-03-06T01:13:23.000Z,97953
2018-03-06T01:14:23.000Z,97956
2018-03-06T01:16:23.000Z,97952
2018-03-06T01:17:23.000Z,97947
2018-03-06T01:19:23.000Z,97948
2018-03-06T01:21:23.000Z,97941
2018-03-06T01:22:23.000Z,97942
2018-03-06T01:24:23.000Z,97941
2018-03-06T01:26:23.000Z,97932
2018-03-06T01:28:07.000Z,97934
2018-03-06T01:29:23.000Z,97927
2018-03-06T01:30:23.000Z,97927
2018-03-06T01:32:07.000Z,97922
2018-03-06T01:33:23.000Z,97924
2018-03-06T01:35:07.000Z,97923
2018-03-06T01:36:23.000Z,97922
2018-03-06T01:38:07.000Z,97919
2018-03-06T01:39:23.000Z,97921
2018-03-06T01:41:23.000Z,97910
2018-03-06T01:42:23.000Z,97914
2018-03-06T01:44:23.000Z,97912
2018-03-06T01:46:07.000Z,97912
2018-03-06T01:47:23.000Z,97905
2018-03-06T01:49:22.000Z,97904
2018-03-06T01:50:22.000Z,97908
2018-03-06T01:52:07.000Z,97903
2018-03-06T01:53:22.000Z,97907
2018-03-06T01:54:22.000Z,97911
2018-03-06T01:55:22.000Z,97918
2018-03-06T01:57:22.000Z,97912
2018-03-06T01:59:22.000Z,97908
2018-03-06T02:00:22.000Z,97906
2018-03-06T02:02:22.000Z,97901
2018-03-06T02:04:22.000Z,97901
2018-03-06T02:05:22.000Z,97901
2018-03-06T02:06:22.000Z,97898
2018-03-06T02:08:22.000Z,97901
2018-03-06T02:10:07.000Z,97906
2018-03-06T02:11:07.000Z,97903
2018-03-06T02:12:22.000Z,97903
2018-03-06T02:14:07.000Z,97900
2018-03-06T02:15:07.000Z,97896
2018-03-06T02:16:22.000Z,97900
2018-03-06T02:17:22.000Z,97899
2018-03-06T02:19:22.000Z,97900
2018-03-06T02:20:22.000Z,97895
2018-03-06T02:22:07.000Z,97892
2018-03-06T02:23:22.000Z,97887
2018-03-06T02:25:22.000Z,97873
2018-03-06T02:26:22.000Z,97876
2018-03-06T02:27:22.000Z,97876
2018-03-06T02:28:22.000Z,97871
2018-03-06T02:29:22.000Z,97871
2018-03-06T02:31:22.000Z,97873
2018-03-06T02:33:22.000Z,97869
2018-03-06T02:34:22.000Z,97875
2018-03-06T02:36:22.000Z,97870
2018-03-06T02:38:22.000Z,97870
2018-03-06T02:39:22.000Z,97869
2018-03-06T02:40:22.000Z,97869
2018-03-06T02:42:07.000Z,97866
2018-03-06T02:43:22.000Z,97862
2018-03-06T02:45:22.000Z,97862
2018-03-06T02:47:22.000Z,97862
2018-03-06T02:49:22.000Z,97867
2018-03-06T02:51:07.000Z,97866
2018-03-06T02:52:22.000Z,97868
2018-03-06T02:53:22.000Z,97863
2018-03-06T02:55:22.000Z,97868
2018-03-06T02:57:22.000Z,97854
2018-03-06T02:59:07.000Z,97861
2018-03-06T03:00:22.000Z,97869
2018-03-06T03:02:22.000Z,97864
2018-03-06T03:04:22.000Z,97864
2018-03-06T03:05:22.000Z,97862
2018-03-06T03:07:22.000Z,97859
2018-03-06T03:09:22.000Z,97858
2018-03-06T03:11:22.000Z,97863
2018-03-06T03:13:22.000Z,97857
2018-03-06T03:14:22.000Z,97856
2018-03-06T03:15:22.000Z,97856
2018-03-06T03:17:22.000Z,97859
2018-03-06T03:18:22.000Z,97854
2018-03-06T03:19:22.000Z,97851
2018-03-06T03:21:22.000Z,97850
2018-03-06T03:22:22.000Z,97845
2018-03-06T03:24:22.000Z,97847
2018-03-06T03:26:22.000Z,97843
2018-03-06T03:28:22.000Z,97843
2018-03-06T03:29:22.000Z,97842
2018-03-06T03:30:22.000Z,97842
2018-03-06T03:32:22.000Z,97841
2018-03-06T03:34:22.000Z,97839
2018-03-06T03:36:22.000Z,97842
2018-03-06T03:38:22.000Z,97839
2018-03-06T03:39:22.000Z,97844
2018-03-06T03:40:22.000Z,97841
2018-03-06T03:42:22.000Z,97833
2018-03-06T03:44:07.000Z,97832
2018-03-06T03:45:22.000Z,97840
2018-03-06T03:46:22.000Z,97840
2018-03-06T03:48:22.000Z,97838
2018-03-06T03:50:22.000Z,97840
2018-03-06T03:51:22.000Z,97844
2018-03-06T03:53:22.000Z,97848
2018-03-06T03:54:22.000Z,97846
2018-03-06T03:56:23.000Z,97851
2018-03-06T03:57:23.000Z,97853
2018-03-06T03:59:23.000Z,97852
2018-03-06T04:01:23.000Z,97847
2018-03-06T04:03:23.000Z,97852
2018-03-06T04:04:23.000Z,97848
2018-03-06T04:06:23.000Z,97841
2018-03-06T04:08:07.000Z,97837
2018-03-06T04:09:07.000Z,97840
2018-03-06T04:10:23.000Z,97849
2018-03-06T04:11:23.000Z,97850
2018-03-06T04:12:23.000Z,97843
2018-03-06T04:14:07.000Z,97845
2018-03-06T04:15:23.000Z,97836
2018-03-06T04:17:23.000Z,97836
2018-03-06T04:19:23.000Z,97835
2018-03-06T04:21:07.000Z,97837
2018-03-06T04:22:23.000Z,97841
2018-03-06T04:23:23.000Z,97842
2018-03-06T04:25:23.000Z,97840
2018-03-06T04:27:23.000Z,97845
2018-03-06T04:28:23.000Z,97842
2018-03-06T04:30:23.000Z,97838
2018-03-06T04:31:23.000Z,97839
2018-03-06T04:33:23.000Z,97840
2018-03-06T04:34:52.000Z,97839
2018-03-06T04:36:23.000Z,97834
2018-03-06T04:38:07.000Z,97832
2018-03-06T04:39:23.000Z,97837
2018-03-06T04:41:23.000Z,97829
2018-03-06T04:43:23.000Z,97829
2018-03-06T04:45:23.000Z,97826
2018-03-06T04:47:23.000Z,97825
2018-03-06T04:48:23.000Z,97823
2018-03-06T04:49:23.000Z,97826
2018-03-06T04:51:23.000Z,97830
2018-03-06T04:52:23.000Z,97825
2018-03-06T04:54:23.000Z,97826
2018-03-06T04:55:23.000Z,97825
2018-03-06T04:57:23.000Z,97823
2018-03-06T04:58:23.000Z,97825
2018-03-06T05:00:22.000Z,97827
2018-03-06T05:01:22.000Z,97827
2018-03-06T05:03:22.000Z,97821
2018-03-06T05:05:22.000Z,97826
2018-03-06T05:06:22.000Z,97826
2018-03-06T05:08:22.000Z,97826
2018-03-06T05:10:22.000Z,97825
2018-03-06T05:11:22.000Z,97830
2018-03-06T05:12:22.000Z,97832
2018-03-06T05:14:22.000Z,97827
2018-03-06T05:15:22.000Z,97827
2018-03-06T05:16:22.000Z,97831
2018-03-06T05:18:22.000Z,97823
2018-03-06T05:19:51.000Z,97822
2018-03-06T05:21:22.000Z,97828
2018-03-06T05:22:22.000Z,97831
2018-03-06T05:24:07.000Z,97828
2018-03-06T05:25:22.000Z,97830
2018-03-06T05:26:22.000Z,97824
2018-03-06T05:28:22.000Z,97828
2018-03-06T05:29:22.000Z,97827
2018-03-06T05:31:22.000Z,97824
2018-03-06T05:33:22.000Z,97826
2018-03-06T05:34:22.000Z,97827
2018-03-06T05:38:41.000Z,97823
2018-03-06T05:40:12.000Z,97825
2018-03-06T05:42:27.000Z,97827
2018-03-06T05:43:27.000Z,97831
2018-03-06T05:45:27.000Z,97827
2018-03-06T05:47:27.000Z,97827
2018-03-06T05:49:27.000Z,97827
2018-03-06T05:50:27.000Z,97833
2018-03-06T05:52:27.000Z,97835
2018-03-06T05:54:27.000Z,97843
2018-03-06T05:55:27.000Z,97834
2018-03-06T05:56:27.000Z,97830
2018-03-06T05:58:12.000Z,97829
2018-03-06T05:59:27.000Z,97830
2018-03-06T06:01:27.000Z,97822
2018-03-06T06:03:28.000Z,97836
2018-03-06T06:04:28.000Z,97827
2018-03-06T06:06:28.000Z,97831
2018-03-06T06:08:12.000Z,97829
2018-03-06T06:09:28.000Z,97830
2018-03-06T06:11:28.000Z,97829
2018-03-06T06:13:28.000Z,97836
2018-03-06T06:15:28.000Z,97836
2018-03-06T06:17:12.000Z,97838
2018-03-06T06:18:28.000Z,97839
2018-03-06T06:19:28.000Z,97839
2018-03-06T06:21:28.000Z,97845
2018-03-06T06:23:28.000Z,97835
2018-03-06T06:24:28.000Z,97837
2018-03-06T06:26:12.000Z,97842
2018-03-06T06:27:28.000Z,97837
2018-03-06T06:28:28.000Z,97846
2018-03-06T06:30:28.000Z,97848
2018-03-06T06:32:28.000Z,97846
2018-03-06T06:33:28.000Z,97844
2018-03-06T06:34:28.000Z,97842
2018-03-06T06:36:12.000Z,97843
2018-03-06T06:37:28.000Z,97843
2018-03-06T06:38:28.000Z,97843
2018-03-06T06:40:28.000Z,97845
2018-03-06T06:42:28.000Z,97849
2018-03-06T06:44:28.000Z,97848
2018-03-06T06:45:28.000Z,97841
2018-03-06T06:47:28.000Z,97857
2018-03-06T06:48:28.000Z,97860
2018-03-06T06:50:28.000Z,97861
2018-03-06T06:52:28.000Z,97858
2018-03-06T06:54:28.000Z,97855
2018-03-06T06:55:28.000Z,97852
2018-03-06T06:57:28.000Z,97855
2018-03-06T06:59:28.000Z,97858
2018-03-06T07:00:28.000Z,97855
2018-03-06T07:02:12.000Z,97850
2018-03-06T07:03:28.000Z,97857
2018-03-06T07:04:28.000Z,97851
2018-03-06T07:06:13.000Z,97853
2018-03-06T07:07:13.000Z,97849
2018-03-06T07:08:28.000Z,97854
2018-03-06T07:09:28.000Z,97853
2018-03-06T07:10:28.000Z,97849
2018-03-06T07:12:28.000Z,97847
2018-03-06T07:13:28.000Z,97846
2018-03-06T07:14:28.000Z,97852
2018-03-06T07:16:28.000Z,97846
2018-03-06T07:18:28.000Z,97860
2018-03-06T07:19:28.000Z,97853
2018-03-06T07:21:28.000Z,97856
2018-03-06T07:22:28.000Z,97850
2018-03-06T07:24:13.000Z,97856
2018-03-06T07:25:28.000Z,97858
2018-03-06T07:27:13.000Z,97856
2018-03-06T07:28:28.000Z,97858
2018-03-06T07:29:28.000Z,97857
2018-03-06T07:30:28.000Z,97861
2018-03-06T07:32:28.000Z,97855
2018-03-06T07:34:28.000Z,97856
2018-03-06T07:36:13.000Z,97856
2018-03-06T07:37:28.000Z,97854
2018-03-06T07:38:28.000Z,97860
2018-03-06T07:40:28.000Z,97855
2018-03-06T07:41:28.000Z,97852
2018-03-06T07:43:28.000Z,97853
2018-03-06T07:45:28.000Z,97850
2018-03-06T07:47:28.000Z,97853
2018-03-06T07:48:28.000Z,97854
2018-03-06T07:49:28.000Z,97854
2018-03-06T07:51:28.000Z,97854
2018-03-06T07:53:13.000Z,97857
2018-03-06T07:54:28.000Z,97857
2018-03-06T07:56:28.000Z,97852
2018-03-06T07:58:28.000Z,97850
2018-03-06T07:59:28.000Z,97849
2018-03-06T08:00:28.000Z,97849
2018-03-06T08:02:28.000Z,97843
2018-03-06T08:04:13.000Z,97852
2018-03-06T08:05:28.000Z,97850
2018-03-06T08:07:28.000Z,97849
2018-03-06T08:09:28.000Z,97849
2018-03-06T08:10:57.000Z,97852
2018-03-06T08:12:28.000Z,97851
2018-03-06T08:13:28.000Z,97840
2018-03-06T08:15:28.000Z,97846
2018-03-06T08:17:28.000Z,97843
2018-03-06T08:19:28.000Z,97843
2018-03-06T08:21:28.000Z,97845
2018-03-06T08:22:28.000Z,97845
2018-03-06T08:24:28.000Z,97841
2018-03-06T08:25:28.000Z,97843
2018-03-06T08:26:28.000Z,97841
2018-03-06T08:27:28.000Z,97839
2018-03-06T08:28:28.000Z,97841
2018-03-06T08:30:28.000Z,97845
2018-03-06T08:32:12.000Z,97842
2018-03-06T08:33:28.000Z,97845
2018-03-06T08:35:28.000Z,97841
2018-03-06T08:36:28.000Z,97846
2018-03-06T08:38:12.000Z,97846
2018-03-06T08:39:28.000Z,97842
2018-03-06T08:41:12.000Z,97841
2018-03-06T08:42:28.000Z,97835
2018-03-06T08:43:28.000Z,97839
2018-03-06T08:45:28.000Z,97833
2018-03-06T08:47:28.000Z,97834
2018-03-06T08:49:28.000Z,97835
2018-03-06T08:50:28.000Z,97835
2018-03-06T08:53:31.000Z,97835
2018-03-06T08:55:17.000Z,97833
2018-03-06T08:57:01.000Z,97835
2018-03-06T08:58:17.000Z,97833
2018-03-06T09:00:01.000Z,97838
2018-03-06T09:01:17.000Z,97836
2018-03-06T09:02:17.000Z,97835
2018-03-06T09:03:17.000Z,97828
2018-03-06T09:05:17.000Z,97831
2018-03-06T09:07:01.000Z,97826
2018-03-06T09:08:17.000Z,97836
2018-03-06T09:10:17.000Z,97831
2018-03-06T09:12:17.000Z,97829
2018-03-06T09:14:17.000Z,97830
2018-03-06T09:15:17.000Z,97834
2018-03-06T09:16:17.000Z,97835
2018-03-06T09:17:17.000Z,97830
2018-03-06T09:19:17.000Z,97829
2018-03-06T09:20:17.000Z,97835
2018-03-06T09:22:01.000Z,97834
2018-03-06T09:23:17.000Z,97829
2018-03-06T09:25:17.000Z,97834
2018-03-06T09:26:17.000Z,97828
2018-03-06T09:28:17.000Z,97833
2018-03-06T09:30:17.000Z,97827
2018-03-06T09:31:17.000Z,97836
2018-03-06T09:33:17.000Z,97838
2018-03-06T09:35:17.000Z,97837
2018-03-06T09:36:17.000Z,97837
2018-03-06T09:38:17.000Z,97836
2018-03-06T09:40:17.000Z,97830
2018-03-06T09:41:17.000Z,97835
2018-03-06T09:42:17.000Z,97827
2018-03-06T09:44:17.000Z,97828
2018-03-06T09:45:17.000Z,97829
2018-03-06T09:47:17.000Z,97824
2018-03-06T09:49:17.000Z,97827
2018-03-06T09:50:17.000Z,97832
2018-03-06T09:52:17.000Z,97824
2018-03-06T09:53:17.000Z,97825
2018-03-06T09:55:17.000Z,97829
2018-03-06T09:56:17.000Z,97825
2018-03-06T09:58:01.000Z,97824
2018-03-06T09:59:17.000Z,97823
2018-03-06T10:01:17.000Z,97822
2018-03-06T10:03:17.000Z,97820
2018-03-06T10:05:17.000Z,97827
2018-03-06T10:07:01.000Z,97822
2018-03-06T10:08:17.000Z,97830
2018-03-06T10:10:17.000Z,97826
2018-03-06T10:11:17.000Z,97831
2018-03-06T10:13:17.000Z,97825
2018-03-06T10:15:17.000Z,97825
2018-03-06T10:17:17.000Z,97823
2018-03-06T10:19:17.000Z,97820
2018-03-06T10:20:17.000Z,97821
2018-03-06T10:22:17.000Z,97826
2018-03-06T10:23:17.000Z,97819
2018-03-06T10:25:17.000Z,97825
2018-03-06T10:27:17.000Z,97825
2018-03-06T10:28:17.000Z,97830
